createdAt,value
2018-12-31T00:01:14.360Z,22.10
2018-12-31T00:03:45.927Z,19.93
2018-12-31T00:06:17.498Z,20.33
2018-12-31T00:08:48.851Z,20.07
2018-12-31T00:11:20.069Z,18.53
2018-12-31T00:13:51.572Z,19.23
2018-12-31T00:16:24.420Z,16.17
2018-12-31T00:18:55.896Z,18.57
2018-12-31T00:21:27.428Z,21.40
2018-12-31T00:23:58.932Z,22.00
2018-12-31T00:26:32.538Z,24.13
2018-12-31T00:29:03.410Z,22.93
2018-12-31T00:31:37.879Z,23.30
2018-12-31T00:34:11.608Z,21.43
2018-12-31T00:36:42.915Z,20.47
2018-12-31T00:39:14.665Z,23.77
2018-12-31T00:41:47.531Z,21.83
2018-12-31T00:44:19.047Z,18.40
2018-12-31T00:46:50.529Z,18.97
2018-12-31T00:49:22.162Z,20.47
2018-12-31T00:51:53.602Z,21.03
2018-12-31T00:54:25.217Z,17.00
2018-12-31T00:56:56.566Z,19.07
2018-12-31T00:59:28.064Z,18.67
2018-12-31T01:01:59.632Z,20.10
2018-12-31T01:04:31.097Z,23.20
2018-12-31T01:07:03.939Z,21.07
2018-12-31T01:09:35.332Z,19.60
2018-12-31T01:12:09.528Z,21.67
2018-12-31T01:14:41.053Z,21.23
2018-12-31T01:17:12.664Z,22.43
2018-12-31T01:19:44.257Z,21.33
2018-12-31T01:22:18.533Z,19.70
2018-12-31T01:24:50.171Z,20.70
2018-12-31T01:27:21.528Z,21.20
2018-12-31T01:29:52.875Z,22.60
2018-12-31T01:32:24.273Z,20.50
2018-12-31T01:34:55.974Z,23.30
2018-12-31T01:37:27.353Z,24.40
2018-12-31T01:40:00.293Z,19.97
2018-12-31T01:42:31.830Z,21.87
2018-12-31T01:45:02.964Z,22.93
2018-12-31T01:47:34.253Z,25.37
2018-12-31T01:50:06.017Z,24.87
2018-12-31T01:52:37.444Z,23.03
2018-12-31T01:55:08.956Z,29.37
2018-12-31T01:57:40.549Z,24.97
2018-12-31T02:00:12.167Z,25.37
2018-12-31T02:02:43.761Z,23.70
2018-12-31T02:05:15.385Z,24.40
2018-12-31T02:07:51.432Z,23.63
2018-12-31T02:10:22.991Z,21.33
2018-12-31T02:12:54.470Z,20.87
2018-12-31T02:15:25.604Z,22.77
2018-12-31T02:17:57.963Z,31.70
2018-12-31T02:20:30.344Z,26.13
2018-12-31T02:23:01.804Z,26.70
2018-12-31T02:25:34.883Z,28.90
2018-12-31T02:28:09.520Z,35.27
2018-12-31T02:30:42.207Z,30.57
2018-12-31T02:33:13.368Z,29.40
2018-12-31T02:35:47.977Z,29.03
2018-12-31T02:38:19.495Z,29.87
2018-12-31T02:40:50.646Z,29.97
2018-12-31T02:43:22.140Z,29.37
2018-12-31T02:45:53.636Z,28.87
2018-12-31T02:48:25.304Z,31.83
2018-12-31T02:50:59.501Z,31.13
2018-12-31T02:53:30.969Z,34.50
2018-12-31T02:56:02.244Z,30.73
2018-12-31T02:58:33.400Z,35.00
2018-12-31T03:01:04.921Z,34.33
2018-12-31T03:03:36.051Z,36.37
2018-12-31T03:06:09.353Z,34.43
2018-12-31T03:08:41.886Z,32.70
2018-12-31T03:11:13.237Z,27.90
2018-12-31T03:13:44.735Z,32.60
2018-12-31T03:16:17.287Z,30.40
2018-12-31T03:18:50.564Z,27.53
2018-12-31T03:21:21.899Z,26.50
2018-12-31T03:23:53.359Z,31.30
2018-12-31T03:26:24.773Z,24.17
2018-12-31T03:28:56.426Z,28.27
2018-12-31T03:31:28.873Z,29.20
2018-12-31T03:34:00.361Z,26.10
2018-12-31T03:36:33.196Z,25.23
2018-12-31T03:39:06.287Z,28.27
2018-12-31T03:41:39.617Z,25.23
2018-12-31T03:44:11.123Z,27.97
2018-12-31T03:46:43.470Z,28.47
2018-12-31T03:49:14.934Z,27.27
2018-12-31T03:51:46.374Z,35.87
2018-12-31T03:54:18.971Z,32.07
2018-12-31T03:56:51.844Z,32.27
2018-12-31T03:59:23.405Z,34.13
2018-12-31T04:01:54.450Z,40.70
2018-12-31T04:04:25.753Z,34.00
2018-12-31T04:06:56.923Z,39.10
2018-12-31T04:09:28.916Z,42.27
2018-12-31T04:12:00.341Z,44.37
2018-12-31T04:14:31.708Z,35.03
2018-12-31T04:17:03.461Z,44.73
2018-12-31T04:19:35.132Z,45.83
2018-12-31T04:22:06.833Z,40.50
2018-12-31T04:24:38.149Z,40.37
2018-12-31T04:27:09.572Z,43.83
2018-12-31T04:29:41.215Z,47.30
2018-12-31T04:32:13.602Z,50.07
2018-12-31T04:34:45.262Z,44.03
2018-12-31T04:37:16.757Z,47.10
2018-12-31T04:39:48.282Z,43.83
2018-12-31T04:42:19.851Z,45.27
2018-12-31T04:44:51.311Z,45.40
2018-12-31T04:47:22.935Z,56.63
2018-12-31T04:49:54.368Z,49.43
2018-12-31T04:52:26.880Z,53.43
2018-12-31T04:54:58.116Z,53.53
2018-12-31T04:57:29.459Z,46.00
2018-12-31T05:00:00.866Z,51.30
2018-12-31T05:02:32.402Z,59.13
2018-12-31T05:05:03.753Z,51.20
2018-12-31T05:07:35.303Z,53.90
2018-12-31T05:10:07.274Z,54.67
2018-12-31T05:12:38.915Z,50.77
2018-12-31T05:15:10.309Z,51.63
2018-12-31T05:17:42.048Z,52.77
2018-12-31T05:20:13.715Z,55.33
2018-12-31T05:22:45.096Z,45.53
2018-12-31T05:25:16.619Z,44.93
2018-12-31T05:27:49.447Z,56.00
2018-12-31T05:30:20.826Z,50.37
2018-12-31T05:32:53.746Z,46.07
2018-12-31T05:35:25.393Z,47.30
2018-12-31T05:37:57.041Z,50.20
2018-12-31T05:40:29.972Z,40.20
2018-12-31T05:43:01.642Z,52.03
2018-12-31T05:45:33.052Z,48.40
2018-12-31T05:48:04.773Z,47.87
2018-12-31T05:50:36.087Z,57.17
2018-12-31T05:53:07.596Z,51.10
2018-12-31T05:55:39.002Z,50.30
2018-12-31T05:58:10.415Z,44.20
2018-12-31T06:00:42.221Z,45.97
2018-12-31T06:03:13.604Z,50.23
2018-12-31T06:05:45.256Z,46.80
2018-12-31T06:08:16.647Z,47.37
2018-12-31T06:10:50.680Z,47.70
2018-12-31T06:13:22.231Z,47.13
2018-12-31T06:15:53.596Z,41.53
2018-12-31T06:18:26.488Z,41.37
2018-12-31T06:20:58.361Z,41.43
2018-12-31T06:23:29.810Z,40.27
2018-12-31T06:26:01.266Z,39.00
2018-12-31T06:28:32.987Z,40.87
2018-12-31T06:31:04.502Z,40.23
2018-12-31T06:33:35.746Z,40.53
2018-12-31T06:36:07.562Z,35.70
2018-12-31T06:38:38.906Z,38.77
2018-12-31T06:41:10.298Z,38.27
2018-12-31T06:43:42.515Z,42.20
2018-12-31T06:46:13.757Z,37.67
2018-12-31T06:48:45.173Z,38.50
2018-12-31T06:51:16.599Z,43.63
2018-12-31T06:53:47.971Z,36.33
2018-12-31T06:56:19.386Z,33.17
2018-12-31T06:58:50.976Z,27.97
2018-12-31T07:01:22.332Z,36.80
2018-12-31T07:03:53.881Z,29.90
2018-12-31T07:06:26.369Z,25.60
2018-12-31T07:08:57.920Z,33.33
2018-12-31T07:11:29.543Z,27.80
2018-12-31T07:14:00.932Z,31.33
2018-12-31T07:16:32.469Z,39.77
2018-12-31T07:19:04.212Z,30.20
2018-12-31T07:21:35.586Z,26.43
2018-12-31T07:24:06.726Z,32.47
2018-12-31T07:26:37.983Z,26.47
2018-12-31T07:29:10.916Z,29.30
2018-12-31T07:31:42.025Z,30.47
2018-12-31T07:34:13.054Z,26.20
2018-12-31T07:36:44.317Z,25.03
2018-12-31T07:39:15.737Z,31.37
2018-12-31T07:41:47.020Z,26.13
2018-12-31T07:44:18.243Z,25.73
2018-12-31T07:46:49.595Z,21.60
2018-12-31T07:49:21.044Z,27.73
2018-12-31T07:51:52.404Z,27.57
2018-12-31T07:54:23.755Z,22.23
2018-12-31T07:56:55.362Z,25.37
2018-12-31T07:59:26.659Z,20.80
2018-12-31T08:01:58.186Z,22.20
2018-12-31T08:04:29.349Z,20.80
2018-12-31T08:07:00.601Z,20.17
2018-12-31T08:09:32.149Z,23.50
2018-12-31T08:12:03.543Z,23.83
2018-12-31T08:14:36.794Z,24.50
2018-12-31T08:17:09.079Z,22.13
2018-12-31T08:19:41.638Z,21.03
2018-12-31T08:22:12.924Z,24.33
2018-12-31T08:24:44.658Z,20.23
2018-12-31T08:27:16.013Z,21.63
2018-12-31T08:29:50.036Z,25.43
2018-12-31T08:32:23.194Z,25.97
2018-12-31T08:34:54.438Z,21.13
2018-12-31T08:37:25.633Z,23.73
2018-12-31T08:39:56.964Z,22.70
2018-12-31T08:42:28.604Z,20.30
2018-12-31T08:44:59.785Z,28.50
2018-12-31T08:47:31.142Z,20.97
2018-12-31T08:50:03.331Z,25.17
2018-12-31T08:52:34.995Z,22.43
2018-12-31T08:55:06.389Z,26.77
2018-12-31T08:57:37.485Z,25.77
2018-12-31T09:00:09.697Z,25.23
2018-12-31T09:02:40.927Z,18.83
2018-12-31T09:05:12.584Z,23.97
2018-12-31T09:07:43.955Z,24.23
2018-12-31T09:10:15.221Z,20.53
2018-12-31T09:12:47.898Z,18.90
2018-12-31T09:15:19.153Z,21.70
2018-12-31T09:17:50.493Z,18.73
2018-12-31T09:20:22.498Z,23.50
2018-12-31T09:22:54.033Z,15.37
2018-12-31T09:25:25.240Z,18.60
2018-12-31T09:27:56.588Z,20.83
2018-12-31T09:30:29.916Z,17.43
2018-12-31T09:33:01.270Z,19.43
2018-12-31T09:35:32.910Z,22.50
2018-12-31T09:38:04.173Z,23.23
2018-12-31T09:40:35.618Z,21.80
2018-12-31T09:43:07.188Z,22.43
2018-12-31T09:45:38.583Z,17.47
2018-12-31T09:48:10.129Z,16.33
2018-12-31T09:50:41.652Z,17.40
2018-12-31T09:53:14.893Z,23.50
2018-12-31T09:55:46.134Z,21.47
2018-12-31T09:58:17.413Z,21.30
2018-12-31T10:00:48.656Z,22.67
2018-12-31T10:03:21.464Z,16.30
2018-12-31T10:05:52.597Z,18.60
2018-12-31T10:08:24.369Z,21.27
2018-12-31T10:10:55.704Z,20.70
2018-12-31T10:13:28.264Z,20.60
2018-12-31T10:15:59.432Z,20.43
2018-12-31T10:18:31.910Z,16.97
2018-12-31T10:21:03.870Z,20.93
2018-12-31T10:23:35.251Z,19.93
2018-12-31T10:26:09.043Z,27.53
2018-12-31T10:28:40.597Z,17.67
2018-12-31T10:31:12.049Z,19.70
2018-12-31T10:33:45.177Z,15.73
2018-12-31T10:36:16.794Z,15.50
2018-12-31T10:38:51.196Z,19.93
2018-12-31T10:41:22.055Z,26.97
2018-12-31T10:43:54.087Z,25.90
2018-12-31T10:46:26.970Z,15.23
2018-12-31T10:48:59.873Z,19.03
2018-12-31T10:51:32.542Z,22.13
2018-12-31T10:54:04.205Z,20.00
2018-12-31T10:56:35.785Z,24.10
2018-12-31T10:59:07.224Z,20.93
2018-12-31T11:01:38.791Z,21.93
2018-12-31T11:04:10.262Z,20.40
2018-12-31T11:06:41.903Z,21.20
2018-12-31T11:09:13.162Z,24.13
2018-12-31T11:11:44.480Z,16.53
2018-12-31T11:14:15.904Z,17.77
2018-12-31T11:16:47.210Z,22.03
2018-12-31T11:19:18.777Z,14.93
2018-12-31T11:21:50.213Z,22.17
2018-12-31T11:24:21.465Z,21.13
2018-12-31T11:26:52.699Z,22.50
2018-12-31T11:29:24.227Z,20.13
2018-12-31T11:31:55.334Z,21.30
2018-12-31T11:34:26.771Z,23.00
2018-12-31T11:36:58.002Z,17.20
2018-12-31T11:39:29.523Z,19.93
2018-12-31T11:42:01.045Z,16.07
2018-12-31T11:44:32.490Z,23.40
2018-12-31T11:47:04.131Z,15.67
2018-12-31T11:49:35.681Z,21.60
2018-12-31T11:52:07.434Z,18.40
2018-12-31T11:54:39.821Z,17.50
2018-12-31T11:57:11.361Z,14.50
2018-12-31T11:59:42.667Z,18.87
2018-12-31T12:02:13.705Z,23.57
2018-12-31T12:04:44.996Z,18.57
2018-12-31T12:07:16.590Z,19.20
2018-12-31T12:09:48.993Z,19.83
2018-12-31T12:12:20.644Z,17.70
2018-12-31T12:14:52.281Z,19.63
2018-12-31T12:17:23.519Z,23.47
2018-12-31T12:19:55.795Z,17.27
2018-12-31T12:22:28.687Z,18.83
2018-12-31T12:24:59.879Z,19.43
2018-12-31T12:27:31.389Z,21.70
2018-12-31T12:30:02.753Z,19.13
2018-12-31T12:32:33.918Z,20.27
2018-12-31T12:35:05.048Z,20.90
2018-12-31T12:37:36.156Z,18.77
2018-12-31T12:40:07.363Z,19.13
2018-12-31T12:42:38.420Z,19.27
2018-12-31T12:45:09.877Z,20.37
2018-12-31T12:47:41.005Z,21.70
2018-12-31T12:50:12.508Z,18.17
2018-12-31T12:52:43.574Z,21.67
2018-12-31T12:55:16.889Z,18.30
2018-12-31T12:57:48.380Z,23.53
2018-12-31T13:00:19.830Z,23.53
2018-12-31T13:02:50.971Z,23.23
2018-12-31T13:05:22.115Z,27.03
2018-12-31T13:07:53.610Z,20.27
2018-12-31T13:10:24.662Z,18.70
2018-12-31T13:12:56.291Z,17.60
2018-12-31T13:15:28.020Z,25.30
2018-12-31T13:17:59.393Z,22.10
2018-12-31T13:20:30.856Z,17.97
2018-12-31T13:23:03.352Z,20.23
2018-12-31T13:25:34.796Z,23.77
2018-12-31T13:28:06.145Z,21.53
2018-12-31T13:30:37.593Z,20.03
2018-12-31T13:33:08.707Z,22.07
2018-12-31T13:35:39.970Z,21.13
2018-12-31T13:38:11.517Z,22.70
2018-12-31T13:40:42.971Z,16.80
2018-12-31T13:43:14.382Z,17.93
2018-12-31T13:45:45.701Z,20.50
2018-12-31T13:48:17.747Z,30.60
2018-12-31T13:50:49.070Z,20.27
2018-12-31T13:53:21.839Z,20.20
2018-12-31T13:55:53.237Z,18.07
2018-12-31T13:58:24.908Z,17.20
2018-12-31T14:00:56.573Z,17.13
2018-12-31T14:03:29.165Z,23.27
2018-12-31T14:06:00.938Z,23.40
2018-12-31T14:08:32.379Z,20.93
2018-12-31T14:11:04.051Z,18.47
2018-12-31T14:13:35.372Z,30.10
2018-12-31T14:16:07.807Z,22.70
2018-12-31T14:18:40.296Z,19.87
2018-12-31T14:21:11.897Z,22.37
2018-12-31T14:23:43.152Z,17.93
2018-12-31T14:26:14.546Z,20.43
2018-12-31T14:28:45.927Z,24.17
2018-12-31T14:31:17.233Z,26.63
2018-12-31T14:33:48.792Z,19.73
2018-12-31T14:36:20.266Z,24.03
2018-12-31T14:38:51.646Z,18.87
2018-12-31T14:41:23.267Z,18.00
2018-12-31T14:43:54.430Z,26.13
2018-12-31T14:46:26.669Z,25.77
2018-12-31T14:48:59.691Z,19.63
2018-12-31T14:51:31.345Z,25.53
2018-12-31T14:54:02.666Z,28.97
2018-12-31T14:56:33.802Z,26.10
2018-12-31T14:59:05.354Z,20.00
2018-12-31T15:01:37.303Z,22.40
2018-12-31T15:04:08.795Z,29.17
2018-12-31T15:06:40.280Z,26.77
2018-12-31T15:09:11.605Z,21.77
2018-12-31T15:11:44.175Z,26.73
2018-12-31T15:14:15.745Z,25.33
2018-12-31T15:16:48.073Z,29.20
2018-12-31T15:19:20.554Z,27.63
2018-12-31T15:21:51.843Z,30.50
2018-12-31T15:24:23.108Z,28.37
2018-12-31T15:26:54.695Z,27.70
2018-12-31T15:29:26.952Z,27.07
2018-12-31T15:32:03.418Z,27.30
2018-12-31T15:34:34.543Z,30.53
2018-12-31T15:37:05.692Z,32.70
2018-12-31T15:39:37.133Z,27.03
2018-12-31T15:42:08.594Z,31.87
2018-12-31T15:44:40.031Z,33.17
2018-12-31T15:47:11.599Z,37.60
2018-12-31T15:49:44.928Z,33.37
2018-12-31T15:52:17.320Z,26.47
2018-12-31T15:54:48.451Z,39.37
2018-12-31T15:57:19.855Z,47.67
2018-12-31T15:59:51.331Z,55.53
2018-12-31T16:02:22.890Z,46.97
2018-12-31T16:04:54.743Z,49.33
2018-12-31T16:07:26.194Z,36.60
2018-12-31T16:09:57.618Z,40.13
2018-12-31T16:12:28.981Z,30.93
2018-12-31T16:15:00.769Z,31.97
2018-12-31T16:17:33.289Z,36.47
2018-12-31T16:20:04.962Z,37.53
2018-12-31T16:22:36.755Z,34.63
2018-12-31T16:25:09.611Z,33.10
2018-12-31T16:27:41.096Z,33.80
2018-12-31T16:30:13.479Z,40.77
2018-12-31T16:32:44.912Z,36.20
2018-12-31T16:35:17.734Z,35.10
2018-12-31T16:37:48.954Z,37.50
2018-12-31T16:40:20.602Z,33.10
2018-12-31T16:42:51.867Z,48.37
2018-12-31T16:45:27.304Z,32.07
2018-12-31T16:47:58.752Z,40.27
2018-12-31T16:50:30.105Z,36.47
2018-12-31T16:53:01.874Z,41.40
2018-12-31T16:55:34.157Z,37.83
2018-12-31T16:58:10.229Z,44.07
2018-12-31T17:00:43.364Z,39.17
2018-12-31T17:03:30.945Z,45.53
2018-12-31T17:06:02.622Z,38.10
2018-12-31T17:08:33.973Z,41.50
2018-12-31T17:11:06.390Z,44.20
2018-12-31T17:13:39.079Z,44.87
2018-12-31T17:16:10.576Z,41.47
2018-12-31T17:18:42.987Z,36.53
2018-12-31T17:21:14.639Z,38.93
2018-12-31T17:23:50.710Z,38.97
2018-12-31T17:26:22.422Z,34.87
2018-12-31T17:28:53.834Z,39.50
2018-12-31T17:31:25.315Z,46.50
2018-12-31T17:33:56.854Z,38.40
2018-12-31T17:36:28.574Z,36.97
2018-12-31T17:38:59.969Z,37.87
2018-12-31T17:41:31.384Z,34.70
2018-12-31T17:44:02.954Z,33.00
2018-12-31T17:46:34.472Z,35.40
2018-12-31T17:49:05.534Z,40.83
2018-12-31T17:51:36.876Z,39.60
2018-12-31T17:54:08.258Z,32.43
2018-12-31T17:56:39.675Z,33.83
2018-12-31T17:59:11.036Z,37.43
2018-12-31T18:01:42.592Z,30.10
2018-12-31T18:04:13.939Z,33.50
2018-12-31T18:06:45.495Z,28.80
2018-12-31T18:09:17.950Z,35.87
2018-12-31T18:11:49.591Z,30.97
2018-12-31T18:14:20.927Z,31.33
2018-12-31T18:16:52.225Z,36.53
2018-12-31T18:19:24.322Z,26.50
2018-12-31T18:21:55.845Z,29.80
2018-12-31T18:24:27.617Z,30.03
2018-12-31T18:26:58.961Z,30.23
2018-12-31T18:29:30.182Z,27.97
2018-12-31T18:32:01.603Z,31.17
2018-12-31T18:34:33.034Z,27.70
2018-12-31T18:37:05.182Z,27.80
2018-12-31T18:39:36.863Z,34.73
2018-12-31T18:42:08.667Z,26.87
2018-12-31T18:44:40.129Z,27.03
2018-12-31T18:47:11.884Z,24.33
2018-12-31T18:49:43.225Z,29.83
2018-12-31T18:52:14.734Z,28.70
2018-12-31T18:54:46.127Z,26.60
2018-12-31T18:57:17.656Z,30.03
2018-12-31T18:59:48.858Z,27.93
2018-12-31T19:02:20.214Z,30.13
2018-12-31T19:04:51.774Z,29.07
2018-12-31T19:07:23.372Z,34.80
2018-12-31T19:09:54.585Z,30.87
2018-12-31T19:12:26.948Z,28.93
2018-12-31T19:14:58.490Z,26.43
2018-12-31T19:17:29.791Z,24.80
2018-12-31T19:20:03.120Z,23.93
2018-12-31T19:22:34.400Z,29.17
2018-12-31T19:25:06.458Z,27.43
2018-12-31T19:27:37.638Z,28.57
2018-12-31T19:30:08.985Z,25.33
2018-12-31T19:32:40.304Z,30.80
2018-12-31T19:35:14.354Z,24.10
2018-12-31T19:37:45.475Z,28.93
2018-12-31T19:40:16.728Z,28.27
2018-12-31T19:42:48.212Z,25.23
2018-12-31T19:45:19.814Z,27.87
2018-12-31T19:47:51.389Z,25.67
2018-12-31T19:50:23.158Z,26.53
2018-12-31T19:52:54.667Z,23.33
2018-12-31T19:55:26.252Z,26.43
2018-12-31T19:57:57.415Z,26.23
2018-12-31T20:00:28.790Z,25.20
2018-12-31T20:03:00.208Z,23.57
2018-12-31T20:14:35.714Z,26.63
2018-12-31T20:17:07.423Z,26.30
2018-12-31T20:19:39.115Z,27.53
2018-12-31T20:22:11.529Z,28.83
2018-12-31T20:24:43.016Z,24.83
2018-12-31T20:27:14.568Z,29.10
2018-12-31T20:29:45.908Z,24.17
2018-12-31T20:32:17.490Z,28.13
2018-12-31T20:34:48.965Z,28.87
2018-12-31T20:37:20.549Z,34.73
2018-12-31T20:39:53.968Z,30.60
2018-12-31T20:42:25.294Z,29.47
2018-12-31T20:44:56.567Z,29.00
2018-12-31T20:47:28.138Z,26.37
2018-12-31T20:49:59.598Z,36.27
2018-12-31T20:52:30.837Z,28.03
2018-12-31T20:55:02.297Z,29.87
2018-12-31T20:57:33.891Z,31.90
2018-12-31T21:00:05.805Z,33.97
2018-12-31T21:02:37.363Z,29.67
2018-12-31T21:05:09.184Z,32.97
2018-12-31T21:07:40.786Z,29.67
2018-12-31T21:10:12.750Z,36.97
2018-12-31T21:12:44.311Z,33.40
2018-12-31T21:15:16.360Z,46.13
2018-12-31T21:17:47.755Z,37.87
2018-12-31T21:20:20.891Z,46.13
2018-12-31T21:22:53.633Z,40.87
2018-12-31T21:25:25.173Z,38.60
2018-12-31T21:27:56.568Z,42.97
2018-12-31T21:30:28.096Z,44.33
2018-12-31T21:32:59.378Z,40.50
2018-12-31T21:35:31.155Z,44.27
2018-12-31T21:38:03.744Z,45.27
2018-12-31T21:40:35.322Z,42.57
2018-12-31T21:43:06.948Z,38.00
2018-12-31T21:45:38.314Z,42.50
2018-12-31T21:48:10.064Z,43.30
2018-12-31T21:50:43.321Z,42.37
2018-12-31T21:53:14.819Z,45.40
2018-12-31T21:55:46.174Z,40.40
2018-12-31T21:58:17.438Z,42.53
2018-12-31T22:00:48.905Z,37.83
2018-12-31T22:03:20.461Z,46.50
2018-12-31T22:05:51.780Z,38.83
2018-12-31T22:08:23.622Z,38.27
2018-12-31T22:10:55.241Z,43.07
2018-12-31T22:13:26.724Z,39.50
2018-12-31T22:15:57.958Z,38.67
2018-12-31T22:18:29.231Z,35.43
2018-12-31T22:21:00.592Z,35.53
2018-12-31T22:23:32.391Z,35.83
2018-12-31T22:26:04.070Z,38.03
2018-12-31T22:28:35.517Z,40.43
2018-12-31T22:31:06.817Z,37.37
2018-12-31T22:33:38.358Z,36.87
2018-12-31T22:36:09.670Z,42.47
2018-12-31T22:38:41.061Z,33.53
2018-12-31T22:41:12.784Z,30.87
2018-12-31T22:43:45.291Z,33.07
2018-12-31T22:46:16.747Z,30.00
2018-12-31T22:48:47.894Z,31.47
2018-12-31T22:51:22.422Z,30.00
2018-12-31T22:53:54.006Z,33.17
2018-12-31T22:56:25.522Z,30.40
2018-12-31T22:58:57.299Z,26.43
2018-12-31T23:01:28.932Z,42.77
2018-12-31T23:04:00.403Z,36.80
2018-12-31T23:06:31.859Z,392.83
2018-12-31T23:09:03.244Z,329.77
2018-12-31T23:11:37.256Z,291.60
2018-12-31T23:14:08.778Z,219.47
2018-12-31T23:16:41.514Z,186.43
2018-12-31T23:19:12.949Z,133.10
2018-12-31T23:21:44.318Z,82.10
2018-12-31T23:24:18.232Z,76.60
2018-12-31T23:26:49.453Z,59.03
2018-12-31T23:29:21.037Z,55.63
2018-12-31T23:31:52.586Z,40.90
2018-12-31T23:34:24.253Z,38.10
2018-12-31T23:36:55.592Z,59.47
2018-12-31T23:39:27.087Z,37.83
2018-12-31T23:41:58.536Z,34.30
2018-12-31T23:44:30.007Z,46.77
2018-12-31T23:47:01.504Z,40.47
2018-12-31T23:49:32.633Z,29.47
2018-12-31T23:52:04.015Z,30.33
2018-12-31T23:54:35.359Z,31.40
2018-12-31T23:57:06.642Z,31.87
2018-12-31T23:59:38.259Z,29.43
